Time;durP1;ratioP1;P1;durP2;ratioP2;P2;SDS_P1;SDS_P2;PMS_P1;PMS_P2;Temp;Humidity;BMP_temperature;BMP_pressure;BME280_temperature;BME280_humidity;BME280_pressure;Samples;Min_cycle;Max_cycle;Signal;HPM_P1;HPM_P2
2023/03/18 00:02:02;;;;;;;9.55;5.00;;;;;;;13.66;35.39;100717.38;5076145;27;98592;-79
2023/03/18 00:04:30;;;;;;;11.23;5.65;;;;;;;13.75;35.31;100715.16;5085579;27;97308;-79
2023/03/18 00:06:57;;;;;;;12.38;5.38;;;;;;;13.88;35.28;100713.63;5088626;27;97116;-78
2023/03/18 00:09:26;;;;;;;8.75;5.10;;;;;;;13.78;35.26;100711.50;5091321;27;98954;-78
2023/03/18 00:11:53;;;;;;;15.60;5.00;;;;;;;13.94;35.00;100723.94;5087048;27;99187;-78
2023/03/18 00:14:21;;;;;;;12.70;5.40;;;;;;;13.75;35.44;100720.47;5090239;27;96781;-78
2023/03/18 00:16:49;;;;;;;10.02;5.45;;;;;;;13.80;34.97;100715.78;5084516;27;96988;-79
2023/03/18 00:19:16;;;;;;;10.68;5.07;;;;;;;13.73;35.13;100710.84;5104526;27;99412;-78
2023/03/18 00:21:44;;;;;;;13.88;5.13;;;;;;;13.79;35.31;100713.19;5082068;27;99433;-78
2023/03/18 00:24:11;;;;;;;15.40;5.15;;;;;;;13.72;35.08;100715.28;5097086;27;98196;-78
2023/03/18 00:26:38;;;;;;;9.23;4.95;;;;;;;13.65;35.31;100705.94;5077370;27;97130;-79
2023/03/18 00:29:04;;;;;;;9.60;4.90;;;;;;;13.72;35.18;100706.50;5093430;27;100546;-78
2023/03/18 00:31:31;;;;;;;10.30;5.28;;;;;;;13.61;35.47;100699.03;5084310;27;97505;-78
2023/03/18 00:33:57;;;;;;;14.52;5.32;;;;;;;13.66;35.39;100699.66;5089340;27;96649;-79
2023/03/18 00:36:25;;;;;;;11.57;4.53;;;;;;;13.63;35.34;100702.47;5081970;27;97190;-77
2023/03/18 00:38:56;;;;;;;11.23;4.60;;;;;;;13.62;35.53;100711.38;5092149;27;99368;-78
2023/03/18 00:41:24;;;;;;;10.75;5.13;;;;;;;13.30;36.00;100712.06;5083079;27;98185;-77
2023/03/18 00:43:52;;;;;;;10.02;5.00;;;;;;;13.37;36.09;100703.75;5098256;27;96837;-78
2023/03/18 00:46:23;;;;;;;9.68;4.97;;;;;;;13.26;36.02;100703.38;5082449;27;96905;-77
2023/03/18 00:48:51;;;;;;;10.52;4.40;;;;;;;13.36;35.88;100699.38;5093411;27;99364;-78
2023/03/18 00:51:19;;;;;;;12.40;5.15;;;;;;;13.40;35.66;100700.91;5079468;27;99212;-78
2023/03/18 00:53:49;;;;;;;9.90;4.95;;;;;;;13.26;35.95;100699.88;5083321;27;96897;-78
2023/03/18 00:56:18;;;;;;;7.22;4.43;;;;;;;13.40;35.73;100702.72;5083187;27;96866;-78
2023/03/18 00:58:45;;;;;;;8.60;4.70;;;;;;;13.34;35.77;100705.66;5095172;27;98914;-78
2023/03/18 01:01:12;;;;;;;9.13;4.68;;;;;;;13.28;35.81;100698.00;5086136;27;99449;-78
2023/03/18 01:03:41;;;;;;;9.40;5.00;;;;;;;13.11;36.10;100702.28;5093576;27;97077;-77
2023/03/18 01:06:08;;;;;;;9.85;4.57;;;;;;;13.26;35.70;100702.53;5089423;27;97528;-79
2023/03/18 01:08:35;;;;;;;10.15;4.68;;;;;;;13.34;35.81;100703.00;5086446;27;99230;-78
2023/03/18 01:11:02;;;;;;;12.10;4.82;;;;;;;13.26;35.79;100703.38;5081772;27;98773;-78
2023/03/18 01:13:30;;;;;;;8.25;4.60;;;;;;;13.20;36.15;100697.50;5085274;27;96861;-78
2023/03/18 01:15:56;;;;;;;9.57;4.53;;;;;;;13.34;35.44;100689.75;5087836;27;97177;-77
2023/03/18 01:18:24;;;;;;;9.55;4.50;;;;;;;13.44;35.37;100693.69;5088713;27;99378;-78
2023/03/18 01:20:51;;;;;;;8.18;4.63;;;;;;;13.46;35.23;100697.09;5085139;27;99403;-77
2023/03/18 01:23:17;;;;;;;9.75;5.47;;;;;;;13.37;35.44;100687.81;5093563;27;96909;-77
2023/03/18 01:25:44;;;;;;;7.60;4.32;;;;;;;12.99;36.02;100694.03;5093776;27;97763;-77
2023/03/18 01:28:11;;;;;;;9.27;4.53;;;;;;;13.14;35.89;100691.53;5087975;27;98479;-78
2023/03/18 01:30:39;;;;;;;13.32;4.78;;;;;;;13.15;35.70;100693.28;5093194;27;99414;-78
2023/03/18 01:33:06;;;;;;;6.63;3.88;;;;;;;13.21;35.77;100700.06;5091993;27;96729;-78
2023/03/18 01:35:34;;;;;;;8.05;4.38;;;;;;;13.10;35.56;100682.00;5086120;27;98091;-77
2023/03/18 01:38:01;;;;;;;10.25;4.88;;;;;;;13.28;35.51;100698.84;5084222;27;99805;-78
2023/03/18 01:40:29;;;;;;;9.23;4.32;;;;;;;13.08;35.73;100683.84;5090140;27;99340;-77
2023/03/18 01:43:12;;;;;;;10.15;4.10;;;;;;;13.05;35.83;100691.97;5088829;27;96801;-78
2023/03/18 01:45:45;;;;;;;6.75;3.95;;;;;;;13.07;35.78;100692.72;5094474;27;97053;-78
2023/03/18 01:48:16;;;;;;;9.93;4.68;;;;;;;12.94;36.10;100685.41;5085994;27;99873;-78
2023/03/18 01:50:43;;;;;;;10.45;4.53;;;;;;;12.94;35.90;100683.63;5093626;27;101430;-78
2023/03/18 01:53:13;;;;;;;8.65;4.57;;;;;;;13.19;35.64;100677.22;5083067;27;97127;-77
2023/03/18 01:55:41;;;;;;;11.90;4.65;;;;;;;13.15;35.60;100680.00;5083089;27;96889;-77
2023/03/18 01:58:11;;;;;;;9.13;4.50;;;;;;;13.21;35.39;100685.94;5085678;27;98996;-78
2023/03/18 02:00:44;;;;;;;11.85;4.72;;;;;;;13.23;35.59;100690.25;5087124;27;99190;-79
2023/03/18 02:03:11;;;;;;;11.77;4.78;;;;;;;13.16;35.59;100684.38;5084240;27;96774;-78
2023/03/18 02:05:40;;;;;;;7.63;4.57;;;;;;;13.12;35.45;100684.56;5092150;27;96867;-77
2023/03/18 02:08:07;;;;;;;8.88;4.85;;;;;;;13.12;35.54;100689.88;5082251;27;101544;-79
2023/03/18 02:10:33;;;;;;;12.75;4.72;;;;;;;13.21;35.63;100693.91;5089639;27;98795;-78
2023/03/18 02:13:04;;;;;;;9.32;4.63;;;;;;;13.30;35.52;100691.69;5083878;27;96772;-78
2023/03/18 02:15:32;;;;;;;9.45;4.57;;;;;;;13.15;35.33;100692.41;5082432;27;96838;-78
2023/03/18 02:18:07;;;;;;;10.95;4.75;;;;;;;13.12;35.71;100692.53;5080895;27;97980;-78
2023/03/18 02:20:45;;;;;;;14.02;4.45;;;;;;;13.21;35.49;100686.81;5081839;27;99209;-77
2023/03/18 02:23:22;;;;;;;9.65;4.63;;;;;;;13.10;35.40;100695.25;5090606;27;97228;-78
2023/03/18 02:25:59;;;;;;;8.52;3.92;;;;;;;13.16;35.60;100687.03;5086696;27;96793;-77
2023/03/18 02:28:31;;;;;;;8.27;4.43;;;;;;;13.21;35.30;100681.50;5081170;27;99418;-77
2023/03/18 02:31:02;;;;;;;9.05;4.35;;;;;;;13.25;35.22;100687.53;5078435;27;99030;-77
2023/03/18 02:33:34;;;;;;;10.85;4.30;;;;;;;13.29;35.09;100683.78;5078921;27;97670;-78
2023/03/18 02:36:03;;;;;;;13.00;4.75;;;;;;;13.21;35.29;100693.91;5081510;27;97273;-78
2023/03/18 02:38:30;;;;;;;11.90;4.63;;;;;;;13.23;35.45;100687.59;5088941;27;99194;-79
2023/03/18 02:40:56;;;;;;;11.88;4.75;;;;;;;13.26;35.35;100686.63;5080174;27;100356;-78
2023/03/18 02:43:24;;;;;;;7.35;4.53;;;;;;;13.28;35.26;100690.03;5085061;27;97000;-78
2023/03/18 02:46:05;;;;;;;6.30;4.20;;;;;;;13.22;35.28;100679.72;5083313;27;99045;-77
2023/03/18 02:48:35;;;;;;;10.73;4.22;;;;;;;13.33;34.99;100678.25;5080286;27;99350;-78
2023/03/18 02:51:02;;;;;;;9.82;4.72;;;;;;;13.31;35.12;100692.56;5080486;27;98842;-78
2023/03/18 02:53:29;;;;;;;10.75;4.38;;;;;;;13.21;35.24;100688.59;5080491;27;97316;-77
2023/03/18 02:55:55;;;;;;;7.93;4.13;;;;;;;13.15;35.24;100680.00;5085174;27;96950;-78
2023/03/18 02:58:22;;;;;;;7.90;4.30;;;;;;;13.22;35.34;100679.72;5087352;27;98232;-77
2023/03/18 03:00:48;;;;;;;20.15;5.03;;;;;;;13.11;35.60;100683.72;5083661;27;100890;-77
2023/03/18 03:03:16;;;;;;;10.40;4.95;;;;;;;13.11;35.56;100680.19;5080576;27;96941;-77
2023/03/18 03:05:42;;;;;;;11.57;4.32;;;;;;;13.02;35.76;100677.97;5086037;27;97226;-78
2023/03/18 03:08:12;;;;;;;9.55;4.32;;;;;;;12.92;35.88;100672.25;5085963;27;98875;-77
2023/03/18 03:10:38;;;;;;;10.68;4.50;;;;;;;12.92;36.01;100671.38;5080054;27;99001;-77
2023/03/18 03:13:06;;;;;;;10.07;4.07;;;;;;;12.93;35.85;100683.72;5081298;27;97133;-78
2023/03/18 03:15:33;;;;;;;9.98;4.68;;;;;;;12.93;35.91;100687.19;5083536;27;96853;-77
2023/03/18 03:17:59;;;;;;;7.78;4.05;;;;;;;12.93;35.96;100684.53;5086208;27;99000;-77
2023/03/18 03:20:27;;;;;;;11.30;4.80;;;;;;;12.97;35.82;100693.22;5083781;27;98818;-77
2023/03/18 03:22:54;;;;;;;9.18;4.25;;;;;;;13.09;35.84;100693.53;5076349;27;97207;-76
2023/03/18 03:25:21;;;;;;;9.32;4.95;;;;;;;13.00;36.13;100691.28;5089533;27;96878;-77
2023/03/18 03:27:48;;;;;;;10.20;5.25;;;;;;;13.10;35.82;100691.72;5080269;27;98928;-78
2023/03/18 03:30:16;;;;;;;9.82;4.63;;;;;;;13.27;35.59;100691.81;5086107;27;99034;-78
2023/03/18 03:32:42;;;;;;;12.38;4.45;;;;;;;12.93;36.30;100694.31;5088451;27;96834;-78
2023/03/18 03:35:12;;;;;;;9.57;4.30;;;;;;;13.10;35.82;100686.44;5085319;27;97043;-78
2023/03/18 03:37:40;;;;;;;9.65;3.83;;;;;;;13.10;35.88;100687.28;5086024;27;99397;-78
2023/03/18 03:40:08;;;;;;;8.40;4.25;;;;;;;13.06;35.84;100691.00;5086655;27;98900;-78
2023/03/18 03:42:35;;;;;;;12.10;4.65;;;;;;;13.02;35.91;100694.75;5080878;27;96969;-77
2023/03/18 03:45:04;;;;;;;9.07;4.22;;;;;;;12.95;36.15;100684.47;5082660;27;96977;-79
2023/03/18 03:47:31;;;;;;;8.52;4.22;;;;;;;13.11;35.88;100686.38;5081525;27;100475;-77
2023/03/18 03:49:57;;;;;;;10.32;4.75;;;;;;;12.97;36.32;100698.53;5084565;27;98806;-78
2023/03/18 03:52:24;;;;;;;11.60;4.85;;;;;;;13.34;35.44;100689.75;5082636;27;99021;-78
2023/03/18 03:54:52;;;;;;;9.27;4.90;;;;;;;13.26;35.70;100694.56;5084821;27;96939;-77
2023/03/18 03:57:18;;;;;;;11.32;4.38;;;;;;;13.30;35.85;100696.13;5085409;27;98980;-77
2023/03/18 03:59:45;;;;;;;8.40;4.50;;;;;;;13.14;35.75;100693.34;5083284;27;98823;-78
2023/03/18 04:02:12;;;;;;;9.20;5.00;;;;;;;13.10;35.94;100689.09;5078204;27;97202;-78
2023/03/18 04:04:38;;;;;;;14.95;5.97;;;;;;;13.10;35.92;100683.78;5079078;27;97175;-78
2023/03/18 04:07:05;;;;;;;9.32;4.38;;;;;;;12.94;36.11;100688.91;5081958;27;99247;-79
2023/03/18 04:09:33;;;;;;;13.80;5.22;;;;;;;13.12;36.07;100696.09;5084087;27;96926;-77
2023/03/18 04:12:02;;;;;;;9.65;4.18;;;;;;;13.14;36.00;100704.81;5093972;27;96733;-79
2023/03/18 04:14:29;;;;;;;9.18;4.18;;;;;;;13.07;36.04;100703.34;5081509;27;97276;-79
2023/03/18 04:16:56;;;;;;;14.50;6.20;;;;;;;13.23;35.80;100713.28;5079436;27;99358;-77
2023/03/18 04:19:24;;;;;;;11.57;4.60;;;;;;;13.16;36.03;100713.56;5081181;27;98797;-78
2023/03/18 04:21:51;;;;;;;10.60;4.90;;;;;;;12.86;36.47;100717.59;5078796;27;97168;-77
2023/03/18 04:24:18;;;;;;;9.75;4.80;;;;;;;13.10;36.26;100711.16;5083610;27;97320;-78
2023/03/18 04:26:44;;;;;;;12.75;4.82;;;;;;;13.25;35.86;100711.44;5081528;27;98827;-78
2023/03/18 04:29:12;;;;;;;11.50;4.90;;;;;;;13.18;36.02;100710.00;5088473;27;102671;-77
2023/03/18 04:31:39;;;;;;;11.55;5.03;;;;;;;13.40;35.71;100713.34;5086987;27;97105;-79
2023/03/18 04:34:05;;;;;;;10.50;4.35;;;;;;;12.97;36.32;100715.31;5077979;27;97452;-78
2023/03/18 04:36:32;;;;;;;12.93;4.68;;;;;;;13.02;36.16;100709.78;5083530;27;98959;-78
2023/03/18 04:38:58;;;;;;;11.10;5.20;;;;;;;12.96;36.38;100718.91;5074002;27;97721;-77
2023/03/18 04:41:26;;;;;;;12.38;5.15;;;;;;;13.01;36.33;100729.28;5083132;27;96809;-77
2023/03/18 04:43:52;;;;;;;9.32;4.28;;;;;;;13.00;36.01;100716.94;5081713;27;96842;-78
2023/03/18 04:46:20;;;;;;;15.07;5.05;;;;;;;13.10;35.81;100724.44;5081343;27;99674;-78
2023/03/18 04:48:47;;;;;;;11.15;4.65;;;;;;;13.24;35.79;100715.00;5079734;27;99930;-78
2023/03/18 04:51:14;;;;;;;10.65;5.35;;;;;;;13.08;36.03;100728.06;5091798;27;97037;-78
2023/03/18 04:53:40;;;;;;;13.02;4.93;;;;;;;13.31;35.67;100722.63;5074311;27;96939;-79
2023/03/18 04:56:07;;;;;;;10.85;4.32;;;;;;;13.03;35.98;100732.75;5081948;27;98800;-77
2023/03/18 04:58:34;;;;;;;11.00;4.78;;;;;;;13.21;35.70;100734.56;5083010;27;97786;-78
2023/03/18 05:01:01;;;;;;;11.25;4.80;;;;;;;13.20;35.72;100731.97;5084845;27;96910;-78
2023/03/18 05:03:28;;;;;;;8.38;4.18;;;;;;;13.27;35.60;100736.94;5069996;27;97402;-77
2023/03/18 05:05:55;;;;;;;10.73;4.35;;;;;;;13.11;35.88;100725.28;5076654;27;99297;-77
2023/03/18 05:08:22;;;;;;;12.73;4.50;;;;;;;13.11;35.78;100727.94;5085522;27;97953;-77
2023/03/18 05:10:49;;;;;;;14.40;5.15;;;;;;;13.18;35.68;100736.53;5085233;27;97032;-77
2023/03/18 05:13:16;;;;;;;10.93;4.75;;;;;;;13.04;35.78;100731.81;5075858;27;96805;-77
2023/03/18 05:15:42;;;;;;;10.73;4.95;;;;;;;13.16;35.61;100734.78;5080974;27;97744;-78
2023/03/18 05:18:09;;;;;;;10.43;4.65;;;;;;;12.93;36.02;100734.94;5086373;27;101304;-71
2023/03/18 05:20:37;;;;;;;11.13;4.80;;;;;;;12.96;36.09;100732.16;5079908;27;97248;-72
2023/03/18 05:23:04;;;;;;;10.13;4.40;;;;;;;12.95;36.10;100724.25;5084512;27;96901;-72
2023/03/18 05:25:32;;;;;;;11.43;4.68;;;;;;;12.87;36.19;100735.22;5085607;27;99502;-73
2023/03/18 05:27:58;;;;;;;14.98;4.60;;;;;;;12.94;35.95;100739.31;5084697;27;98804;-73
2023/03/18 05:30:25;;;;;;;11.73;5.10;;;;;;;12.91;36.27;100725.34;5086592;27;97150;-73
2023/03/18 05:32:51;;;;;;;10.20;4.85;;;;;;;12.98;36.22;100729.44;5085831;27;97193;-73
2023/03/18 05:35:18;;;;;;;13.40;5.03;;;;;;;12.99;36.11;100726.72;5080994;27;99448;-72
2023/03/18 05:37:46;;;;;;;10.88;4.47;;;;;;;12.73;36.53;100727.88;5084853;27;97643;-74
2023/03/18 05:40:13;;;;;;;13.57;4.78;;;;;;;12.76;36.56;100734.84;5080660;27;96990;-72
2023/03/18 05:42:40;;;;;;;8.10;4.47;;;;;;;12.83;36.43;100735.44;5078795;27;96942;-72
2023/03/18 05:45:08;;;;;;;9.02;4.93;;;;;;;12.79;36.60;100740.03;5081891;27;97781;-72
2023/03/18 05:47:34;;;;;;;14.50;5.05;;;;;;;12.90;36.41;100740.41;5081598;27;99273;-72
2023/03/18 05:50:02;;;;;;;7.38;4.35;;;;;;;12.80;36.66;100741.72;5075858;27;96691;-73
2023/03/18 05:52:29;;;;;;;10.48;4.53;;;;;;;12.92;36.51;100740.34;5092916;27;97381;-73
2023/03/18 05:54:56;;;;;;;8.70;4.47;;;;;;;12.98;36.34;100735.59;5085960;27;99100;-72
2023/03/18 05:57:23;;;;;;;12.00;4.93;;;;;;;12.95;36.45;100743.69;5093078;27;98973;-73
2023/03/18 05:59:49;;;;;;;9.63;4.88;;;;;;;13.00;36.35;100749.63;5078067;27;96946;-74
2023/03/18 06:02:16;;;;;;;10.55;4.72;;;;;;;13.12;36.19;100745.59;5087469;27;97177;-74
2023/03/18 06:04:42;;;;;;;10.68;4.93;;;;;;;12.91;36.51;100744.78;5076463;27;99335;-73
2023/03/18 06:07:09;;;;;;;12.57;5.13;;;;;;;12.86;36.56;100746.78;5096113;27;100171;-72
2023/03/18 06:09:35;;;;;;;9.77;4.85;;;;;;;12.72;36.93;100739.44;5089127;27;96792;-73
2023/03/18 06:12:04;;;;;;;11.95;5.10;;;;;;;13.06;36.32;100736.09;5094182;27;96898;-71
2023/03/18 06:14:30;;;;;;;10.93;4.93;;;;;;;12.91;36.60;100741.25;5084095;27;99127;-72
2023/03/18 06:16:56;;;;;;;12.82;5.20;;;;;;;13.01;36.39;100739.91;5091512;27;98952;-72
2023/03/18 06:19:24;;;;;;;13.57;5.05;;;;;;;12.96;36.59;100739.25;5082352;27;96754;-73
2023/03/18 06:21:51;;;;;;;10.18;4.90;;;;;;;12.85;37.01;100744.19;5087618;27;96806;-72
2023/03/18 06:24:18;;;;;;;12.18;4.72;;;;;;;13.03;36.77;100744.22;5077402;27;99529;-72
2023/03/18 06:26:44;;;;;;;14.13;5.13;;;;;;;12.94;36.72;100747.28;5089430;27;98715;-73
2023/03/18 06:29:12;;;;;;;11.43;5.53;;;;;;;12.92;36.77;100762.41;5077884;27;97112;-72
2023/03/18 06:31:38;;;;;;;12.98;5.28;;;;;;;12.60;37.51;100768.28;5086401;27;97078;-73
2023/03/18 06:34:05;;;;;;;10.10;5.15;;;;;;;12.86;37.15;100768.00;5087811;27;99171;-71
2023/03/18 06:36:32;;;;;;;12.75;5.22;;;;;;;12.90;36.96;100769.56;5084970;27;99046;-72
2023/03/18 06:38:58;;;;;;;10.27;5.00;;;;;;;12.97;36.89;100773.66;5084091;27;97313;-72
2023/03/18 06:41:26;;;;;;;11.48;5.40;;;;;;;12.93;36.91;100764.09;5088662;27;97065;-73
2023/03/18 06:43:53;;;;;;;14.68;5.68;;;;;;;13.02;36.84;100762.84;5088992;27;99992;-73
2023/03/18 06:46:22;;;;;;;19.67;5.80;;;;;;;12.92;36.92;100754.47;5084768;27;98801;-72
2023/03/18 06:48:48;;;;;;;9.98;5.03;;;;;;;12.92;37.16;100762.41;5084666;27;97050;-73
2023/03/18 06:51:15;;;;;;;12.85;5.15;;;;;;;13.04;36.74;100766.28;5077987;27;97353;-73
2023/03/18 06:53:42;;;;;;;10.68;4.93;;;;;;;12.99;36.83;100766.50;5085780;27;98951;-72
2023/03/18 06:56:08;;;;;;;9.82;5.20;;;;;;;12.86;37.41;100773.28;5082109;27;99090;-73
2023/03/18 06:58:35;;;;;;;11.30;4.93;;;;;;;13.13;36.91;100773.84;5090847;27;97173;-74
2023/03/18 07:01:01;;;;;;;9.63;4.65;;;;;;;13.06;36.80;100780.38;5083920;27;96966;-72
2023/03/18 07:03:29;;;;;;;11.20;5.10;;;;;;;13.09;36.80;100778.41;5088015;27;99291;-72
2023/03/18 07:05:56;;;;;;;12.27;5.07;;;;;;;13.33;36.57;100784.41;5085462;27;99160;-73
2023/03/18 07:08:23;;;;;;;10.57;5.28;;;;;;;13.52;36.08;100789.75;5081833;27;96780;-73
2023/03/18 07:10:51;;;;;;;12.90;5.43;;;;;;;13.32;36.54;100803.09;5080459;27;96993;-72
2023/03/18 07:13:18;;;;;;;12.05;5.72;;;;;;;13.35;36.58;100800.28;5088893;27;98925;-74
2023/03/18 07:15:45;;;;;;;9.18;5.30;;;;;;;13.42;36.72;100809.69;5084815;27;98876;-73
2023/03/18 07:18:12;;;;;;;11.48;5.38;;;;;;;13.42;36.57;100809.69;5090757;27;97124;-73
2023/03/18 07:20:40;;;;;;;10.43;5.10;;;;;;;13.45;36.50;100817.53;5079437;27;97176;-73
2023/03/18 07:23:10;;;;;;;8.75;5.55;;;;;;;13.35;36.55;100809.09;5086266;27;99312;-73
2023/03/18 07:25:37;;;;;;;10.10;5.15;;;;;;;13.67;36.30;100804.94;5086828;27;99146;-72
2023/03/18 07:28:06;;;;;;;9.40;4.65;;;;;;;13.66;36.39;100808.53;5092080;27;96785;-74
2023/03/18 07:30:33;;;;;;;14.02;5.47;;;;;;;13.63;36.34;100794.56;5075232;27;96820;-72
2023/03/18 07:32:59;;;;;;;10.88;5.82;;;;;;;13.81;36.16;100801.63;5093652;27;99254;-72
2023/03/18 07:35:28;;;;;;;12.63;5.78;;;;;;;13.83;36.44;100808.59;5082103;27;99192;-73
2023/03/18 07:37:56;;;;;;;10.00;5.30;;;;;;;13.96;36.11;100809.75;5090756;27;97393;-74
2023/03/18 07:40:23;;;;;;;13.48;5.35;;;;;;;14.23;35.68;100807.53;5083760;27;96909;-74
2023/03/18 07:42:52;;;;;;;12.30;5.53;;;;;;;14.30;35.75;100816.94;5086035;27;96854;-72
2023/03/18 07:45:18;;;;;;;11.77;5.63;;;;;;;14.66;35.15;100819.53;5073578;27;97733;-73
2023/03/18 07:47:45;;;;;;;10.32;5.20;;;;;;;14.66;35.05;100822.19;5080639;27;97074;-74
2023/03/18 07:50:12;;;;;;;9.52;5.55;;;;;;;14.81;35.13;100823.22;5079412;27;97021;-73
2023/03/18 07:52:39;;;;;;;11.07;5.22;;;;;;;15.10;34.77;100821.69;5082782;27;102391;-73
2023/03/18 07:55:08;;;;;;;17.15;5.97;;;;;;;15.53;34.12;100825.59;5080569;27;99254;-75
2023/03/18 07:57:35;;;;;;;9.52;5.55;;;;;;;15.53;33.99;100829.13;5080289;27;96865;-73
2023/03/18 08:00:02;;;;;;;10.05;5.13;;;;;;;15.52;34.06;100831.84;5087455;27;97295;-74
2023/03/18 08:02:28;;;;;;;12.95;5.95;;;;;;;15.74;34.13;100836.91;5081085;27;99923;-73
2023/03/18 08:04:55;;;;;;;8.85;5.13;;;;;;;15.99;33.54;100837.25;5076869;27;102155;-73
2023/03/18 08:07:23;;;;;;;15.13;5.50;;;;;;;15.74;33.78;100837.75;5088486;27;97299;-73
2023/03/18 08:09:50;;;;;;;15.52;5.40;;;;;;;15.98;33.74;100835.50;5083133;27;97239;-73
2023/03/18 08:12:17;;;;;;;10.00;5.00;;;;;;;16.18;33.54;100831.72;5078512;27;99333;-73
2023/03/18 08:14:44;;;;;;;12.82;5.70;;;;;;;16.13;33.39;100836.47;5075779;27;99126;-73
2023/03/18 08:17:11;;;;;;;11.20;5.53;;;;;;;16.10;33.63;100825.97;5084962;27;97184;-74
2023/03/18 08:19:37;;;;;;;9.82;5.63;;;;;;;16.06;33.71;100827.09;5078490;27;96848;-73
2023/03/18 08:22:04;;;;;;;19.40;6.05;;;;;;;16.58;33.15;100831.13;5083004;27;100290;-73
2023/03/18 08:24:31;;;;;;;12.00;5.28;;;;;;;16.67;33.13;100840.44;5093206;27;101043;-73
2023/03/18 08:26:58;;;;;;;8.48;5.53;;;;;;;16.59;33.10;100845.31;5083853;27;97160;-73
2023/03/18 08:29:26;;;;;;;9.73;5.05;;;;;;;16.79;32.92;100850.38;5083371;27;97209;-73
2023/03/18 08:31:53;;;;;;;12.90;5.28;;;;;;;17.10;32.74;100847.56;5082225;27;103146;-74
2023/03/18 08:34:20;;;;;;;15.05;5.50;;;;;;;17.04;32.86;100850.63;5092173;27;100394;-73
2023/03/18 08:36:48;;;;;;;10.20;4.88;;;;;;;17.20;32.67;100850.53;5085348;27;96796;-73
2023/03/18 08:39:14;;;;;;;10.85;4.70;;;;;;;17.16;33.06;100859.69;5095645;27;97141;-73
2023/03/18 08:41:41;;;;;;;9.45;4.90;;;;;;;17.35;32.61;100856.75;5079834;27;98975;-73
2023/03/18 08:44:09;;;;;;;12.80;5.22;;;;;;;17.31;32.75;100850.75;5081903;27;101997;-73
2023/03/18 08:46:37;;;;;;;9.75;4.65;;;;;;;17.56;32.31;100846.53;5082846;27;97057;-74
2023/03/18 08:49:04;;;;;;;13.88;4.90;;;;;;;17.70;32.20;100847.44;5099159;27;97123;-74
2023/03/18 08:51:31;;;;;;;9.32;5.00;;;;;;;17.50;32.41;100848.66;5077750;27;99250;-73
2023/03/18 08:53:58;;;;;;;14.20;5.65;;;;;;;17.22;33.07;100842.44;5087891;27;99430;-75
2023/03/18 08:56:25;;;;;;;9.10;4.55;;;;;;;17.61;32.32;100839.97;5077243;27;97224;-79
2023/03/18 08:58:51;;;;;;;9.90;5.13;;;;;;;17.97;31.99;100836.78;5095807;27;96931;-79
2023/03/18 09:01:20;;;;;;;14.63;4.95;;;;;;;18.16;31.90;100848.00;5081555;27;99557;-80
2023/03/18 09:03:49;;;;;;;11.35;5.22;;;;;;;18.06;32.02;100859.38;5087411;27;101298;-78
2023/03/18 09:06:16;;;;;;;11.73;5.13;;;;;;;18.17;31.92;100857.75;5084761;27;96684;-80
2023/03/18 09:08:42;;;;;;;14.18;5.35;;;;;;;18.19;31.91;100868.31;5086052;27;97048;-78
2023/03/18 09:11:09;;;;;;;9.07;4.70;;;;;;;18.21;31.89;100861.06;5078018;27;98851;-78
2023/03/18 09:13:37;;;;;;;11.05;4.53;;;;;;;18.27;31.79;100866.00;5079597;27;97810;-79
2023/03/18 09:16:04;;;;;;;11.32;4.90;;;;;;;18.17;32.05;100859.56;5086574;27;96990;-78
2023/03/18 09:18:31;;;;;;;8.77;4.40;;;;;;;17.94;32.76;100863.72;5085288;27;96943;-78
2023/03/18 09:21:07;;;;;;;7.57;4.38;;;;;;;18.00;32.43;100862.44;5079743;27;99268;-78
2023/03/18 09:23:35;;;;;;;7.38;4.50;;;;;;;18.08;32.42;100854.81;5081608;27;99521;-78
2023/03/18 09:26:02;;;;;;;15.63;4.43;;;;;;;18.62;32.00;100866.41;5081596;27;97105;-77
2023/03/18 09:28:28;;;;;;;15.18;4.13;;;;;;;18.53;31.89;100865.16;5081967;27;96964;-79
2023/03/18 09:30:55;;;;;;;12.82;4.72;;;;;;;18.79;31.79;100865.25;5081056;27;98942;-80
2023/03/18 09:33:23;;;;;;;12.35;4.90;;;;;;;18.69;31.95;100868.56;5085332;27;101206;-78
2023/03/18 09:35:50;;;;;;;11.57;4.63;;;;;;;18.86;31.98;100871.91;5088685;27;97405;-78
2023/03/18 09:38:20;;;;;;;9.73;4.43;;;;;;;19.12;31.56;100868.31;5084994;27;97417;-78
2023/03/18 09:40:57;;;;;;;11.38;4.93;;;;;;;18.99;31.89;100876.31;5083708;27;98849;-79
2023/03/18 09:43:40;;;;;;;8.70;4.90;;;;;;;18.88;31.79;100880.72;5079571;27;99291;-78
2023/03/18 09:46:13;;;;;;;9.63;4.95;;;;;;;19.11;31.70;100874.63;5079787;27;97202;-78
2023/03/18 09:48:53;;;;;;;9.07;4.65;;;;;;;19.67;31.16;100875.19;5089559;27;97336;-80
2023/03/18 09:51:33;;;;;;;8.05;4.75;;;;;;;19.52;31.09;100869.09;5085203;27;98890;-79
2023/03/18 09:54:05;;;;;;;9.02;4.68;;;;;;;19.78;30.75;100876.13;5084519;27;99135;-79
2023/03/18 09:56:35;;;;;;;10.95;4.75;;;;;;;19.75;30.75;100880.88;5088851;27;96936;-78
2023/03/18 09:59:06;;;;;;;11.45;4.85;;;;;;;19.95;30.69;100872.25;5084018;27;97187;-79
2023/03/18 10:01:36;;;;;;;11.20;4.65;;;;;;;19.98;30.74;100874.72;5094781;27;98940;-78
2023/03/18 10:04:07;;;;;;;6.75;4.22;;;;;;;20.01;30.34;100873.63;5081765;27;101472;-78
2023/03/18 10:06:36;;;;;;;9.25;4.55;;;;;;;19.93;30.88;100879.56;5081656;27;98769;-77
2023/03/18 10:09:14;;;;;;;10.23;4.70;;;;;;;20.18;30.78;100874.09;5095241;27;96705;-80
2023/03/18 10:11:42;;;;;;;14.70;6.00;;;;;;;20.69;30.13;100876.59;5093571;27;98184;-78
2023/03/18 10:14:20;;;;;;;9.85;4.28;;;;;;;20.94;29.74;100873.75;5093951;27;98196;-79
2023/03/18 10:16:55;;;;;;;7.75;4.55;;;;;;;21.05;29.38;100873.81;5089890;27;96772;-80
2023/03/18 10:19:22;;;;;;;13.48;4.82;;;;;;;21.16;29.38;100874.81;5095148;27;96921;-80
2023/03/18 10:22:00;;;;;;;9.45;4.50;;;;;;;21.13;29.37;100872.34;5084236;27;98898;-81
2023/03/18 10:24:36;;;;;;;7.30;4.10;;;;;;;21.26;29.45;100867.78;5080146;27;98813;-76
2023/03/18 10:27:13;;;;;;;11.75;4.88;;;;;;;21.05;29.79;100868.44;5077940;27;96809;-75
2023/03/18 10:29:45;;;;;;;9.77;4.60;;;;;;;20.92;29.64;100870.34;5086646;27;96814;-75
2023/03/18 10:32:23;;;;;;;11.10;4.57;;;;;;;20.93;29.70;100869.38;5083286;27;99332;-75
2023/03/18 10:35:02;;;;;;;9.32;4.57;;;;;;;20.95;30.11;100871.94;5078788;27;98334;-76
2023/03/18 10:37:40;;;;;;;10.15;4.65;;;;;;;20.67;30.63;100867.81;5077343;27;97508;-75
2023/03/18 10:40:14;;;;;;;9.02;4.60;;;;;;;21.06;29.89;100870.16;5076105;27;97622;-77
2023/03/18 10:42:41;;;;;;;12.15;4.45;;;;;;;20.75;30.25;100862.69;5080201;27;99094;-78
2023/03/18 10:45:19;;;;;;;7.85;4.57;;;;;;;20.87;30.32;100872.50;5085323;27;97821;-75
2023/03/18 10:47:51;;;;;;;8.60;4.22;;;;;;;20.55;30.83;100863.34;5086750;27;96769;-74
2023/03/18 10:50:21;;;;;;;9.15;5.22;;;;;;;20.84;31.09;100869.22;5090240;27;96722;-74
2023/03/18 10:52:54;;;;;;;9.43;4.93;;;;;;;20.76;30.79;100869.78;5079583;27;99412;-78
2023/03/18 10:55:29;;;;;;;10.32;4.88;;;;;;;20.94;30.65;100870.22;5087374;27;98767;-78
2023/03/18 10:57:56;;;;;;;9.67;4.47;;;;;;;20.92;30.71;100873.03;5094672;27;96706;-79
2023/03/18 11:00:28;;;;;;;11.25;5.00;;;;;;;20.83;30.89;100881.78;5082314;27;96995;-78
2023/03/18 11:02:56;;;;;;;7.57;4.28;;;;;;;21.24;30.98;100875.09;5092380;27;99347;-78
2023/03/18 11:05:24;;;;;;;6.80;3.60;;;;;;;21.45;31.05;100868.03;5080475;27;99769;-78
2023/03/18 11:07:59;;;;;;;9.20;4.10;;;;;;;21.61;30.24;100867.66;5080776;27;98501;-74
2023/03/18 11:10:30;;;;;;;11.43;4.57;;;;;;;21.46;30.15;100875.13;5080267;27;96816;-75
2023/03/18 11:12:58;;;;;;;11.10;4.32;;;;;;;21.73;30.05;100872.06;5084207;27;99388;-73
2023/03/18 11:15:25;;;;;;;8.25;4.80;;;;;;;21.71;30.39;100874.91;5076349;27;97493;-74
2023/03/18 11:17:52;;;;;;;8.60;4.53;;;;;;;21.83;30.41;100871.22;5078285;27;97263;-73
2023/03/18 11:20:23;;;;;;;12.88;4.20;;;;;;;21.75;30.14;100870.97;5085653;27;97071;-76
2023/03/18 11:22:54;;;;;;;8.20;4.35;;;;;;;21.65;30.37;100867.31;5082116;27;101560;-80
2023/03/18 11:25:25;;;;;;;11.75;4.40;;;;;;;21.64;30.34;100868.28;5083592;27;98781;-76